Time;durP1;ratioP1;P1;durP2;ratioP2;P2;SDS_P1;SDS_P2;PMS_P1;PMS_P2;Temp;Humidity;BMP_temperature;BMP_pressure;BME280_temperature;BME280_humidity;BME280_pressure;Samples;Min_cycle;Max_cycle;Signal;HPM_P1;HPM_P2
2021/07/07 00:00:11;;;;;;;;;;;;;;;13.27;100.00;98722.94;4992482;28;19926;-80
2021/07/07 00:02:38;;;;;;;;;;;;;;;13.31;100.00;98734.06;4992987;28;19927;-80
2021/07/07 00:05:05;;;;;;;;;;;;;;;13.28;100.00;98730.13;4992512;28;19933;-80
2021/07/07 00:07:32;;;;;;;;;;;;;;;13.35;100.00;98734.72;4976367;28;20432;-80
2021/07/07 00:10:00;;;;;;;;;;;;;;;13.38;100.00;98736.63;4977136;28;19930;-80
2021/07/07 00:12:28;;;;;;;;;;;;;;;13.42;100.00;98735.25;4977190;28;20012;-80
2021/07/07 00:14:55;;;;;;;;;;;;;;;13.51;100.00;98743.03;4976918;28;19933;-79
2021/07/07 00:17:23;;;;;;;;;;;;;;;13.47;100.00;98736.72;4977008;28;19933;-80
2021/07/07 00:19:50;;;;;;;;;;;;;;;13.49;100.00;98739.88;4992045;28;19973;-80
2021/07/07 00:22:17;;;;;;;;;;;;;;;13.58;100.00;98737.16;4975400;28;20109;-79
2021/07/07 00:24:45;;;;;;;;;;;;;;;13.58;100.00;98745.59;4975406;28;20447;-79
2021/07/07 00:27:13;;;;;;;;;;;;;;;13.55;100.00;98752.91;4975643;28;20424;-79
2021/07/07 00:29:40;;;;;;;;;;;;;;;13.57;100.00;98752.44;4975849;28;19933;-79
2021/07/07 00:32:07;;;;;;;;;;;;;;;13.64;100.00;99341.78;4976289;28;20354;-79
2021/07/07 00:34:34;;;;;;;;;;;;;;;13.63;100.00;99329.75;4976381;28;20378;-79
2021/07/07 00:37:04;;;;;;;;;;;;;;;13.62;100.00;99330.19;4991109;28;19926;-79
2021/07/07 00:39:31;;;;;;;;;;;;;;;13.62;100.00;99330.19;4976517;28;19926;-79
2021/07/07 00:41:58;;;;;;;;;;;;;;;13.66;100.00;99333.72;4974339;28;19964;-80
2021/07/07 00:44:25;;;;;;;;;;;;;;;13.65;100.00;99337.72;4975209;28;20021;-79
2021/07/07 00:46:52;;;;;;;;;;;;;;;13.67;100.00;99341.69;4975195;28;19927;-79
2021/07/07 00:49:20;;;;;;;;;;;;;;;13.67;100.00;99338.09;4976236;28;19930;-80
2021/07/07 00:51:47;;;;;;;;;;;;;;;13.64;100.00;99338.97;4975480;28;20286;-80
2021/07/07 00:54:15;;;;;;;;;;;;;;;13.63;100.00;99343.03;4958396;28;19926;-80
2021/07/07 00:56:43;;;;;;;;;;;;;;;13.65;100.00;99348.97;4975574;28;19926;-80
2021/07/07 00:59:10;;;;;;;;;;;;;;;13.62;100.00;99349.84;4974805;28;19930;-80
2021/07/07 01:01:39;;;;;;;;;;;;;;;13.69;100.00;99355.31;4990546;28;19930;-80
2021/07/07 01:04:06;;;;;;;;;;;;;;;13.62;100.00;99350.63;4975704;28;19926;-80
2021/07/07 01:06:33;;;;;;;;;;;;;;;13.69;100.00;99352.50;4975558;28;19981;-80
2021/07/07 01:09:01;;;;;;;;;;;;;;;13.68;100.00;99359.31;4974891;28;20401;-80
2021/07/07 01:11:31;;;;;;;;;;;;;;;13.64;100.00;99353.81;4990861;28;19926;-80
2021/07/07 01:13:59;;;;;;;;;;;;;;;13.61;100.00;99359.50;4974603;28;20341;-80
2021/07/07 01:16:27;;;;;;;;;;;;;;;13.68;100.00;99376.16;4990890;28;20017;-80
2021/07/07 01:18:54;;;;;;;;;;;;;;;13.72;100.00;99377.66;4974601;28;19926;-80
2021/07/07 01:21:21;;;;;;;;;;;;;;;13.69;100.00;99377.78;4990710;28;19932;-80
2021/07/07 01:23:49;;;;;;;;;;;;;;;13.74;100.00;99374.41;4975701;28;19933;-80
2021/07/07 01:26:16;;;;;;;;;;;;;;;13.73;100.00;99384.09;4975678;28;19926;-80
2021/07/07 01:28:44;;;;;;;;;;;;;;;13.75;100.00;99387.25;4975611;28;20021;-79
2021/07/07 01:31:11;;;;;;;;;;;;;;;13.80;100.00;99393.13;4975409;28;19930;-80
2021/07/07 01:33:38;;;;;;;;;;;;;;;13.82;100.00;99401.13;4974551;28;20001;-80
2021/07/07 01:36:05;;;;;;;;;;;;;;;13.84;100.00;99407.09;4974154;28;19987;-80
2021/07/07 01:38:32;;;;;;;;;;;;;;;13.90;100.00;99410.97;4975661;28;19949;-80
2021/07/07 01:40:59;;;;;;;;;;;;;;;13.87;100.00;99406.22;4975310;28;20396;-80
2021/07/07 01:43:27;;;;;;;;;;;;;;;13.94;100.00;99417.28;4975401;28;19933;-80
2021/07/07 01:45:55;;;;;;;;;;;;;;;13.91;100.00;99416.16;4990287;28;19981;-79
2021/07/07 01:48:22;;;;;;;;;;;;;;;13.88;100.00;99414.22;4975545;28;19957;-79
2021/07/07 01:50:49;;;;;;;;;;;;;;;13.96;100.00;99426.06;4975174;28;19957;-80
2021/07/07 01:53:16;;;;;;;;;;;;;;;13.98;100.00;99415.19;4989864;28;20404;-80
2021/07/07 01:55:44;;;;;;;;;;;;;;;14.00;100.00;99424.75;4990089;28;20047;-80
2021/07/07 01:58:11;;;;;;;;;;;;;;;14.01;100.00;99422.75;4973934;28;19977;-80
2021/07/07 02:00:38;;;;;;;;;;;;;;;14.00;100.00;99427.56;4975062;28;19926;-80
2021/07/07 02:03:05;;;;;;;;;;;;;;;14.08;100.00;99425.38;4974958;28;19930;-80
2021/07/07 02:05:34;;;;;;;;;;;;;;;14.10;100.00;99436.97;4974777;28;19926;-79
2021/07/07 02:08:03;;;;;;;;;;;;;;;14.10;100.00;99434.16;4974016;28;19976;-80
2021/07/07 02:10:30;;;;;;;;;;;;;;;14.07;100.00;99430.19;4975005;28;19989;-80
2021/07/07 02:12:57;;;;;;;;;;;;;;;14.11;100.00;99438.53;4973746;28;19926;-80
2021/07/07 02:15:26;;;;;;;;;;;;;;;14.09;100.00;99446.63;4974835;28;19926;-80
2021/07/07 02:17:56;;;;;;;;;;;;;;;14.08;100.00;99440.22;4989647;28;19926;-80
2021/07/07 02:20:23;;;;;;;;;;;;;;;14.02;100.00;99439.16;4970229;28;19930;-80
2021/07/07 02:22:50;;;;;;;;;;;;;;;14.13;100.00;99447.34;4979821;28;19926;-80
2021/07/07 02:25:23;;;;;;;;;;;;;;;14.12;100.00;99446.53;4973565;28;19933;-80
2021/07/07 02:27:50;;;;;;;;;;;;;;;14.10;100.00;99454.59;4974899;28;20330;-79
2021/07/07 02:30:18;;;;;;;;;;;;;;;14.12;100.00;99451.34;4974578;28;19961;-80
2021/07/07 02:32:47;;;;;;;;;;;;;;;14.04;100.00;99450.75;4973533;28;19926;-80
2021/07/07 02:35:16;;;;;;;;;;;;;;;14.01;100.00;99460.03;4974555;28;19926;-79
2021/07/07 02:37:43;;;;;;;;;;;;;;;14.03;100.00;99451.19;4971252;28;20397;-79
2021/07/07 02:40:11;;;;;;;;;;;;;;;14.09;100.00;99460.66;4973643;28;19930;-79
2021/07/07 02:42:39;;;;;;;;;;;;;;;14.05;100.00;99465.59;4974586;28;20406;-80
2021/07/07 02:45:07;;;;;;;;;;;;;;;14.01;100.00;99464.88;4973528;28;19933;-80
2021/07/07 02:47:34;;;;;;;;;;;;;;;14.02;100.00;99464.44;4973484;28;19930;-80
2021/07/07 02:50:02;;;;;;;;;;;;;;;14.03;100.00;99476.47;4973315;28;19937;-80
2021/07/07 02:52:30;;;;;;;;;;;;;;;14.07;100.00;99477.97;4973368;28;19926;-80
2021/07/07 02:54:56;;;;;;;;;;;;;;;14.09;100.00;99474.72;4973224;28;19927;-80
2021/07/07 02:57:23;;;;;;;;;;;;;;;14.09;100.00;99483.16;4973471;28;19926;-80
2021/07/07 02:59:50;;;;;;;;;;;;;;;14.11;100.00;99494.75;4973178;28;19933;-80
2021/07/07 03:02:17;;;;;;;;;;;;;;;14.19;100.00;99496.16;4973316;28;19981;-80
2021/07/07 03:04:45;;;;;;;;;;;;;;;14.18;100.00;99497.38;4974998;28;19977;-80
2021/07/07 03:07:12;;;;;;;;;;;;;;;14.15;100.00;99495.44;4977258;28;20016;-80
2021/07/07 03:09:39;;;;;;;;;;;;;;;14.22;100.00;99506.53;4993506;28;19926;-79
2021/07/07 03:12:06;;;;;;;;;;;;;;;14.21;100.00;99511.34;4976454;28;19930;-80
2021/07/07 03:14:33;;;;;;;;;;;;;;;14.17;100.00;99505.03;4978073;28;19937;-80
2021/07/07 03:17:00;;;;;;;;;;;;;;;14.18;100.00;99508.63;4977706;28;19926;-80
2021/07/07 03:19:27;;;;;;;;;;;;;;;14.20;100.00;99508.97;4976920;28;19977;-80
2021/07/07 03:21:54;;;;;;;;;;;;;;;14.20;100.00;99525.84;4976511;28;19933;-80
2021/07/07 03:24:21;;;;;;;;;;;;;;;14.19;100.00;99518.66;4978093;28;20046;-79
2021/07/07 03:26:49;;;;;;;;;;;;;;;14.26;100.00;99529.75;4977788;28;20370;-80
2021/07/07 03:29:16;;;;;;;;;;;;;;;14.21;100.00;99522.59;4976809;28;19933;-80
2021/07/07 03:31:43;;;;;;;;;;;;;;;14.25;100.00;99539.41;4977417;28;19926;-80
2021/07/07 03:34:10;;;;;;;;;;;;;;;14.29;100.00;99537.31;4977637;28;19926;-80
2021/07/07 03:36:37;;;;;;;;;;;;;;;14.29;100.00;99540.91;4976599;28;19953;-79
2021/07/07 03:39:04;;;;;;;;;;;;;;;14.27;100.00;99539.75;4977357;28;19933;-79
2021/07/07 03:41:33;;;;;;;;;;;;;;;14.23;100.00;99536.22;4976215;28;19969;-80
2021/07/07 03:44:00;;;;;;;;;;;;;;;14.26;100.00;99535.38;4977439;28;19926;-80
2021/07/07 03:46:27;;;;;;;;;;;;;;;14.27;100.00;99542.56;4976079;28;19926;-79
2021/07/07 03:48:54;;;;;;;;;;;;;;;14.22;100.00;99545.88;4992602;28;19933;-80
2021/07/07 03:51:21;;;;;;;;;;;;;;;14.26;100.00;99552.22;4977262;28;20290;-79
2021/07/07 03:53:48;;;;;;;;;;;;;;;14.24;100.00;99557.50;4992370;28;19941;-80
2021/07/07 03:56:15;;;;;;;;;;;;;;;14.25;100.00;99561.91;4991773;28;19945;-79
2021/07/07 03:58:42;;;;;;;;;;;;;;;14.20;100.00;99554.75;4977295;28;19936;-80
2021/07/07 04:01:09;;;;;;;;;;;;;;;14.23;100.00;99555.88;4975762;28;20294;-79
2021/07/07 04:03:36;;;;;;;;;;;;;;;14.22;100.00;99562.75;4976088;28;19977;-79
2021/07/07 04:06:04;;;;;;;;;;;;;;;14.22;100.00;99562.75;4975818;28;19932;-79
2021/07/07 04:08:32;;;;;;;;;;;;;;;14.22;100.00;99562.75;4975664;28;19925;-79
2021/07/07 04:10:59;;;;;;;;;;;;;;;14.20;100.00;99566.00;4992015;28;20362;-79
2021/07/07 04:13:28;;;;;;;;;;;;;;;14.19;100.00;99569.25;4976966;28;20631;-79
2021/07/07 04:15:55;;;;;;;;;;;;;;;14.14;100.00;99566.94;4975445;28;19949;-79
2021/07/07 04:18:22;;;;;;;;;;;;;;;14.20;100.00;99570.81;4975586;28;20366;-79
2021/07/07 04:20:50;;;;;;;;;;;;;;;14.21;100.00;99573.19;4975449;28;20282;-80
2021/07/07 04:23:17;;;;;;;;;;;;;;;14.25;100.00;99567.53;4976749;28;19997;-80
2021/07/07 04:25:44;;;;;;;;;;;;;;;14.21;100.00;99578.00;4991626;28;19926;-80
2021/07/07 04:28:11;;;;;;;;;;;;;;;14.24;100.00;99577.16;4976580;28;19926;-79
2021/07/07 04:30:38;;;;;;;;;;;;;;;14.21;100.00;99578.00;4991218;28;19930;-80
2021/07/07 04:33:05;;;;;;;;;;;;;;;14.28;100.00;99586.31;4976945;28;19930;-80
2021/07/07 04:35:32;;;;;;;;;;;;;;;14.31;100.00;99582.66;4975029;28;20313;-80
2021/07/07 04:37:59;;;;;;;;;;;;;;;14.29;100.00;99585.91;4976635;28;19930;-80
2021/07/07 04:40:27;;;;;;;;;;;;;;;14.27;100.00;99588.34;4991594;28;19932;-80
2021/07/07 04:42:54;;;;;;;;;;;;;;;14.33;100.00;99602.66;4975171;28;19933;-79
2021/07/07 04:45:21;;;;;;;;;;;;;;;14.34;100.00;99604.25;4976011;28;19926;-79
2021/07/07 04:47:48;;;;;;;;;;;;;;;14.38;100.00;99617.00;4976345;28;20440;-80
2021/07/07 04:50:16;;;;;;;;;;;;;;;14.42;100.00;99623.34;4975020;28;19933;-79
2021/07/07 04:52:44;;;;;;;;;;;;;;;14.43;100.00;99629.75;4974885;28;19965;-79
2021/07/07 04:55:12;;;;;;;;;;;;;;;14.42;100.00;99631.78;4976058;28;19930;-79
2021/07/07 04:57:40;;;;;;;;;;;;;;;14.40;100.00;99631.41;4976072;28;20386;-79
2021/07/07 05:00:18;;;;;;;;;;;;;;;14.31;100.00;99622.78;4976126;28;20036;-79
2021/07/07 05:02:46;;;;;;;;;;;;;;;14.31;100.00;99636.06;4974816;28;20053;-80
2021/07/07 05:05:14;;;;;;;;;;;;;;;14.30;100.00;99638.06;4976010;28;20049;-79
2021/07/07 05:07:42;;;;;;;;;;;;;;;14.34;100.00;99638.00;4981442;28;19993;-80
2021/07/07 05:10:09;;;;;;;;;;;;;;;14.31;100.00;99650.13;4977653;28;19929;-78
2021/07/07 05:12:36;;;;;;;;;;;;;;;14.36;100.00;99655.19;4992679;28;20080;-80
2021/07/07 05:15:04;;;;;;;;;;;;;;;14.38;100.00;99661.19;4984736;28;19930;-80
2021/07/07 05:17:32;;;;;;;;;;;;;;;14.40;100.00;99655.94;4982331;28;20344;-79
2021/07/07 05:19:59;;;;;;;;;;;;;;;14.44;100.00;99667.88;4984021;28;19926;-80
2021/07/07 05:22:27;;;;;;;;;;;;;;;14.52;100.00;99672.13;4987174;28;20398;-80
2021/07/07 05:24:54;;;;;;;;;;;;;;;14.60;100.00;99672.75;4990680;28;19984;-80
2021/07/07 05:27:21;;;;;;;;;;;;;;;14.62;100.00;99682.34;4995241;28;20242;-80
2021/07/07 05:29:48;;;;;;;;;;;;;;;14.61;100.00;99691.22;4985723;28;19926;-80
2021/07/07 05:32:21;;;;;;;;;;;;;;;14.55;100.00;99688.13;4978127;28;19933;-80
2021/07/07 05:34:49;;;;;;;;;;;;;;;14.49;100.00;99685.03;4977908;28;20512;-80
2021/07/07 05:37:20;;;;;;;;;;;;;;;14.48;100.00;99699.50;4987876;28;19926;-80
2021/07/07 05:39:48;;;;;;;;;;;;;;;14.32;100.00;99688.22;4955841;28;20065;-80
2021/07/07 05:42:18;;;;;;;;;;;;;;;14.34;100.00;99688.59;4976951;28;20020;-77
2021/07/07 05:44:46;;;;;;;;;;;;;;;14.36;100.00;99694.56;4975035;28;19926;-79
2021/07/07 05:47:13;;;;;;;;;;;;;;;14.41;100.00;99699.69;4974710;28;20448;-79
2021/07/07 05:49:41;;;;;;;;;;;;;;;14.46;100.00;99696.38;4974936;28;20277;-80
2021/07/07 05:52:09;;;;;;;;;;;;;;;14.44;100.00;99694.00;4974895;28;19937;-79
2021/07/07 05:54:37;;;;;;;;;;;;;;;14.44;100.00;99698.81;4967329;28;20024;-81
2021/07/07 05:57:05;;;;;;;;;;;;;;;14.38;100.00;99700.56;4969555;28;19930;-79
2021/07/07 05:59:32;;;;;;;;;;;;;;;14.43;100.00;99705.66;4981900;28;19926;-79
2021/07/07 06:01:59;;;;;;;;;;;;;;;14.44;100.00;99710.06;4974215;28;20061;-79
2021/07/07 06:04:26;;;;;;;;;;;;;;;14.45;100.00;99706.00;4985746;28;20345;-79
2021/07/07 06:06:53;;;;;;;;;;;;;;;14.48;100.00;99719.19;4971400;28;20243;-79
2021/07/07 06:12:37;;;;;;;;;;;;;;;14.52;100.00;99723.53;5341033;23;19925;-80
2021/07/07 06:15:06;;;;;;;;;;;;;;;14.53;100.00;99724.31;4991818;28;20012;-80
2021/07/07 06:17:33;;;;;;;;;;;;;;;14.45;100.00;99734.94;4982968;28;19925;-80
2021/07/07 06:20:00;;;;;;;;;;;;;;;14.49;100.00;99735.63;5010161;28;19925;-79
2021/07/07 06:25:45;;;;;;;;;;;;;;;14.45;100.00;99739.75;5002889;28;19930;-78
2021/07/07 06:28:12;;;;;;;;;;;;;;;14.46;100.00;99752.59;4985773;28;20282;-79
2021/07/07 06:30:39;;;;;;;;;;;;;;;14.46;100.00;99752.59;5010174;28;20301;-80
2021/07/07 06:33:07;;;;;;;;;;;;;;;14.50;100.00;99758.94;4992267;28;20377;-79
2021/07/07 06:35:36;;;;;;;;;;;;;;;14.55;100.00;99772.50;5009058;28;19933;-80
2021/07/07 06:38:04;;;;;;;;;;;;;;;14.58;100.00;99777.25;4985135;28;19926;-79
2021/07/07 06:40:31;;;;;;;;;;;;;;;14.58;100.00;99782.88;5009144;28;19929;-79
2021/07/07 06:42:58;;;;;;;;;;;;;;;14.62;100.00;99783.59;4998245;28;19926;-79
2021/07/07 06:45:27;;;;;;;;;;;;;;;14.59;100.00;99784.47;4999184;28;20403;-79
2021/07/07 06:47:54;;;;;;;;;;;;;;;14.54;100.00;99798.25;4999261;28;19925;-78
2021/07/07 06:50:21;;;;;;;;;;;;;;;14.63;100.00;99801.25;4990611;28;20403;-79
2021/07/07 06:52:48;;;;;;;;;;;;;;;14.64;100.00;99809.28;4998959;28;19934;-78
2021/07/07 06:55:16;;;;;;;;;;;;;;;14.66;100.00;99814.47;4998583;28;20463;-78
2021/07/07 06:57:43;;;;;;;;;;;;;;;14.67;100.00;99827.28;5016555;28;20410;-79
2021/07/07 07:00:11;;;;;;;;;;;;;;;14.66;100.00;99832.13;5016157;28;19936;-79
2021/07/07 07:02:39;;;;;;;;;;;;;;;14.77;100.00;99841.13;5008463;28;19929;-78
2021/07/07 07:05:07;;;;;;;;;;;;;;;14.71;100.00;99837.25;4984236;28;20028;-78
2021/07/07 07:07:34;;;;;;;;;;;;;;;14.81;100.00;99841.88;4987723;28;20016;-78
2021/07/07 07:10:03;;;;;;;;;;;;;;;14.85;100.00;99850.22;5013471;28;19936;-78
2021/07/07 07:12:30;;;;;;;;;;;;;;;14.79;100.00;99855.56;5020227;28;20664;-78
2021/07/07 07:18:45;;;;;;;;;;;;;;;14.70;100.00;99858.16;4970576;28;20020;-78
2021/07/07 07:21:21;;;;;;;;;;;;;;;14.73;100.00;99862.94;5012100;28;19929;-80
2021/07/07 07:24:06;;;;;;;;;;;;;;;14.73;100.00;99864.94;4955016;28;19930;-78
2021/07/07 07:26:34;;;;;;;;;;;;;;;14.71;100.00;99873.81;5012489;28;19925;-78
2021/07/07 07:29:02;;;;;;;;;;;;;;;14.76;100.00;99883.75;4995752;28;19936;-79
2021/07/07 07:31:29;;;;;;;;;;;;;;;14.77;100.00;99871.31;5013567;28;20020;-80
2021/07/07 07:33:56;;;;;;;;;;;;;;;14.75;100.00;99883.00;5011814;28;19926;-80
2021/07/07 07:36:25;;;;;;;;;;;;;;;14.79;100.00;99889.34;4993709;28;20385;-76
2021/07/07 07:39:05;;;;;;;;;;;;;;;14.75;100.00;99874.56;5011996;28;20667;-76
2021/07/07 07:41:33;;;;;;;;;;;;;;;14.86;100.00;99894.03;5012478;28;19932;-77
2021/07/07 07:44:01;;;;;;;;;;;;;;;14.85;100.00;99887.59;4993928;28;19929;-77
2021/07/07 07:46:30;;;;;;;;;;;;;;;14.90;100.00;99895.56;4994026;28;19940;-77
2021/07/07 07:48:59;;;;;;;;;;;;;;;14.92;100.00;99909.97;4994606;28;19960;-77
2021/07/07 07:51:27;;;;;;;;;;;;;;;14.78;100.00;99904.63;5011294;28;19953;-77
2021/07/07 07:53:54;;;;;;;;;;;;;;;14.77;100.00;99903.03;5010036;28;20442;-77
2021/07/07 07:56:22;;;;;;;;;;;;;;;14.89;100.00;99921.31;5010463;28;19925;-77
2021/07/07 07:58:49;;;;;;;;;;;;;;;14.97;100.00;99923.53;4994041;28;19936;-78
2021/07/07 08:01:16;;;;;;;;;;;;;;;14.98;100.00;99930.75;5011261;28;19929;-77
2021/07/07 08:03:44;;;;;;;;;;;;;;;15.04;100.00;99934.63;5012062;28;20317;-78
2021/07/07 08:06:11;;;;;;;;;;;;;;;15.07;100.00;99938.63;5010439;28;19932;-77
2021/07/07 08:08:38;;;;;;;;;;;;;;;15.00;100.00;99942.38;5011085;28;19935;-77
2021/07/07 08:11:06;;;;;;;;;;;;;;;15.03;100.00;99941.50;5011765;28;19932;-77
2021/07/07 08:13:33;;;;;;;;;;;;;;;15.06;100.00;99943.44;4982775;28;20577;-77
2021/07/07 08:16:00;;;;;;;;;;;;;;;15.04;100.00;99948.72;5011263;28;19934;-76
2021/07/07 08:18:27;;;;;;;;;;;;;;;15.12;100.00;99944.53;5011965;28;19925;-75
2021/07/07 08:20:54;;;;;;;;;;;;;;;15.12;100.00;99952.97;4993785;28;19925;-76
2021/07/07 08:23:22;;;;;;;;;;;;;;;15.09;100.00;99959.47;5011449;28;20022;-76
2021/07/07 08:25:49;;;;;;;;;;;;;;;15.12;100.00;99969.88;4977293;28;19929;-77
2021/07/07 08:28:17;;;;;;;;;;;;;;;15.12;100.00;99975.50;4961546;28;20457;-76
2021/07/07 08:30:44;;;;;;;;;;;;;;;15.07;100.00;99970.38;5011730;28;20285;-76
2021/07/07 08:33:14;;;;;;;;;;;;;;;15.22;100.00;99980.09;5011147;28;19925;-76
2021/07/07 08:35:41;;;;;;;;;;;;;;;15.42;100.00;99986.56;5016088;28;19932;-77
2021/07/07 08:38:09;;;;;;;;;;;;;;;15.59;100.00;100002.31;4980571;28;20373;-77
2021/07/07 08:40:38;;;;;;;;;;;;;;;15.51;100.00;99992.41;4994632;28;19924;-78
2021/07/07 08:43:33;;;;;;;;;;;;;;;15.50;100.00;99990.03;4985446;28;20808;-78
2021/07/07 08:46:00;;;;;;;;;;;;;;;15.51;100.00;99994.44;5009153;28;19971;-77
2021/07/07 08:48:28;;;;;;;;;;;;;;;15.46;100.00;99990.13;4985418;28;19949;-77
2021/07/07 08:50:59;;;;;;;;;;;;;;;15.43;100.00;99993.81;5009678;28;19929;-77
2021/07/07 08:53:28;;;;;;;;;;;;;;;15.56;100.00;99989.09;4993411;28;19930;-77
2021/07/07 08:55:57;;;;;;;;;;;;;;;15.69;100.00;100001.28;4976747;28;20288;-79
2021/07/07 08:58:27;;;;;;;;;;;;;;;15.78;100.00;100007.09;4992048;28;19980;-78
2021/07/07 09:00:58;;;;;;;;;;;;;;;16.02;100.00;100005.75;4991282;28;19940;-79
2021/07/07 09:03:35;;;;;;;;;;;;;;;16.04;100.00;100008.13;4973007;28;19969;-80
2021/07/07 09:06:19;;;;;;;;;;;;;;;16.09;100.00;100016.06;5001152;28;19948;-80
2021/07/07 09:08:48;;;;;;;;;;;;;;;16.18;100.00;100022.72;4992504;28;20300;-80
2021/07/07 09:11:20;;;;;;;;;;;;;;;16.17;100.00;100015.50;4977120;28;20384;-80
2021/07/07 09:14:06;;;;;;;;;;;;;;;16.27;100.00;100015.69;4986708;28;19929;-79
2021/07/07 09:16:58;;;;;;;;;;;;;;;16.39;100.00;100017.81;5010386;28;19925;-79
2021/07/07 09:19:28;;;;;;;;;;;;;;;16.61;100.00;100024.53;4992756;28;20040;-80
2021/07/07 09:22:02;;;;;;;;;;;;;;;16.95;100.00;100050.25;4992471;28;19964;-79
2021/07/07 09:24:29;;;;;;;;;;;;;;;16.77;100.00;100038.63;4990880;28;19929;-80
2021/07/07 09:27:01;;;;;;;;;;;;;;;16.91;100.00;100033.41;4993027;28;19925;-81
2021/07/07 09:29:37;;;;;;;;;;;;;;;16.82;100.00;100026.78;4987606;28;19929;-79
2021/07/07 09:32:11;;;;;;;;;;;;;;;16.77;100.00;100016.84;5010182;28;19973;-78
2021/07/07 09:34:39;;;;;;;;;;;;;;;16.69;100.00;100004.13;5010167;28;19980;-81
2021/07/07 09:37:08;;;;;;;;;;;;;;;16.54;100.00;100002.13;5010140;28;19931;-80
2021/07/07 09:39:36;;;;;;;;;;;;;;;16.51;100.00;99988.91;4987804;28;20299;-79
2021/07/07 09:42:03;;;;;;;;;;;;;;;16.59;100.00;99987.47;4992317;28;19926;-79
2021/07/07 09:48:13;;;;;;;;;;;;;;;17.73;100.00;100038.41;5002463;28;19937;-80
2021/07/07 09:50:41;;;;;;;;;;;;;;;18.53;100.00;100059.78;5007331;28;20487;-79
2021/07/07 09:53:11;;;;;;;;;;;;;;;19.07;100.00;100086.66;5008951;28;20450;-80
2021/07/07 09:58:56;;;;;;;;;;;;;;;19.03;100.00;100046.34;5004264;28;20016;-78
2021/07/07 10:01:23;;;;;;;;;;;;;;;18.80;100.00;100009.91;5005970;28;19934;-76
2021/07/07 10:03:51;;;;;;;;;;;;;;;18.63;100.00;99976.56;5009674;28;19929;-77
2021/07/07 10:06:21;;;;;;;;;;;;;;;18.59;100.00;99951.19;4992053;28;20418;-77
2021/07/07 10:08:49;;;;;;;;;;;;;;;18.80;100.00;99941.97;4991601;28;19930;-78
2021/07/07 10:11:18;;;;;;;;;;;;;;;18.69;100.00;99912.47;5009688;28;19929;-77
2021/07/07 10:13:46;;;;;;;;;;;;;;;18.75;100.00;99888.75;4992372;28;19926;-78
2021/07/07 10:16:14;;;;;;;;;;;;;;;18.75;100.00;99851.16;4991382;28;20278;-77
2021/07/07 10:18:42;;;;;;;;;;;;;;;18.80;100.00;99840.03;5009275;28;19929;-77
2021/07/07 10:21:10;;;;;;;;;;;;;;;18.62;100.00;99800.28;5010144;28;19933;-77
2021/07/07 10:23:39;;;;;;;;;;;;;;;18.79;100.00;99792.38;5015363;28;20023;-77
2021/07/07 10:26:07;;;;;;;;;;;;;;;18.69;100.00;99760.38;5015369;28;19925;-77
2021/07/07 10:28:35;;;;;;;;;;;;;;;18.56;100.00;99719.25;4988206;28;19933;-78
2021/07/07 10:31:03;;;;;;;;;;;;;;;18.58;100.00;99697.75;5014840;28;19926;-78
2021/07/07 10:33:34;;;;;;;;;;;;;;;18.49;100.00;99677.06;5008558;28;19929;-78
2021/07/07 10:36:16;;;;;;;;;;;;;;;18.58;100.00;99663.78;4992020;28;19930;-78
2021/07/07 10:38:50;;;;;;;;;;;;;;;18.62;100.00;99647.44;5008649;28;19932;-79
2021/07/07 10:41:37;;;;;;;;;;;;;;;19.01;100.00;99646.66;5008575;28;19965;-78
2021/07/07 10:44:04;;;;;;;;;;;;;;;19.21;100.00;99649.88;5008315;28;19925;-79
2021/07/07 10:46:50;;;;;;;;;;;;;;;19.12;100.00;99610.19;5008747;28;19951;-77
2021/07/07 10:49:20;;;;;;;;;;;;;;;19.11;100.00;99576.69;5011070;28;19930;-77
2021/07/07 10:51:49;;;;;;;;;;;;;;;18.82;100.00;99530.97;5010585;28;19936;-77
2021/07/07 10:54:21;;;;;;;;;;;;;;;18.65;100.00;99502.16;5011149;28;19925;-76
2021/07/07 10:56:51;;;;;;;;;;;;;;;18.63;100.00;99489.75;5010558;28;19925;-76
2021/07/07 10:59:28;;;;;;;;;;;;;;;18.42;100.00;99471.59;4993452;28;19940;-76
2021/07/07 11:02:18;;;;;;;;;;;;;;;18.45;100.00;99481.97;5010153;28;19929;-76
2021/07/07 11:04:46;;;;;;;;;;;;;;;18.14;100.00;99469.91;5003965;28;19937;-76
2021/07/07 11:07:27;;;;;;;;;;;;;;;18.32;100.00;99481.28;5011475;28;19929;-76
2021/07/07 11:09:55;;;;;;;;;;;;;;;18.42;100.00;99507.59;5011015;28;19926;-76
2021/07/07 11:12:28;;;;;;;;;;;;;;;18.60;100.00;99525.41;5011016;28;19929;-76
2021/07/07 11:15:16;;;;;;;;;;;;;;;18.90;100.00;99521.72;5011295;28;20306;-76
2021/07/07 11:17:53;;;;;;;;;;;;;;;18.99;100.00;99520.97;5014465;28;19934;-76
2021/07/07 11:20:34;;;;;;;;;;;;;;;18.99;100.00;99521.72;4963603;28;19931;-76
2021/07/07 11:23:09;;;;;;;;;;;;;;;18.83;100.00;99490.88;4994363;28;19941;-76
2021/07/07 11:25:38;;;;;;;;;;;;;;;18.82;100.00;99480.81;4981874;28;19926;-76
2021/07/07 11:28:07;;;;;;;;;;;;;;;18.47;100.00;99459.66;4997849;28;19952;-76
2021/07/07 11:30:34;;;;;;;;;;;;;;;18.35;100.00;99428.63;4997649;28;19936;-76
2021/07/07 11:33:06;;;;;;;;;;;;;;;18.20;100.00;99427.66;5015391;28;19940;-76
2021/07/07 11:35:35;;;;;;;;;;;;;;;18.25;100.00;99430.63;4997734;28;19929;-76
2021/07/07 11:38:10;;;;;;;;;;;;;;;18.17;100.00;99038.34;5014760;28;19929;-76
2021/07/07 11:40:41;;;;;;;;;;;;;;;18.25;100.00;99031.84;5014888;28;19972;-76
2021/07/07 11:43:13;;;;;;;;;;;;;;;18.48;100.00;99025.53;5015185;28;19984;-74
2021/07/07 11:45:54;;;;;;;;;;;;;;;18.90;100.00;99022.66;4998054;28;19929;-76
2021/07/07 11:48:32;;;;;;;;;;;;;;;19.20;100.00;99010.97;4998037;28;19930;-75
2021/07/07 11:51:05;;;;;;;;;;;;;;;18.99;100.00;98978.06;4998069;28;19972;-75
2021/07/07 11:53:33;;;;;;;;;;;;;;;18.80;100.00;98962.47;5015361;28;19947;-76
2021/07/07 11:56:13;;;;;;;;;;;;;;;18.85;100.00;98953.34;5015359;28;19980;-76
2021/07/07 11:58:44;;;;;;;;;;;;;;;18.71;100.00;98948.38;4997843;28;19940;-76
2021/07/07 12:01:14;;;;;;;;;;;;;;;18.84;100.00;98934.75;5014985;28;19971;-76
2021/07/07 12:03:41;;;;;;;;;;;;;;;18.77;100.00;98917.38;5008917;28;19936;-80
2021/07/07 12:06:12;;;;;;;;;;;;;;;19.03;100.00;98913.56;4994500;28;20028;-78
2021/07/07 12:08:41;;;;;;;;;;;;;;;19.29;100.00;98900.47;4978462;28;20008;-80
2021/07/07 12:11:10;;;;;;;;;;;;;;;19.19;100.00;98881.94;4977349;28;19925;-76
2021/07/07 12:13:38;;;;;;;;;;;;;;;19.30;100.00;98887.88;5006662;28;19936;-76
2021/07/07 12:16:18;;;;;;;;;;;;;;;19.13;100.00;98858.41;5010731;28;19957;-76
2021/07/07 12:18:47;;;;;;;;;;;;;;;19.24;100.00;98861.44;5007086;28;20046;-76
2021/07/07 12:21:34;;;;;;;;;;;;;;;19.21;100.00;98845.44;4993497;28;19940;-76
2021/07/07 12:24:03;;;;;;;;;;;;;;;18.85;100.00;98823.13;4999717;28;20404;-76
2021/07/07 12:26:32;;;;;;;;;;;;;;;18.91;100.00;98823.22;5011351;28;19929;-75
2021/07/07 12:29:00;;;;;;;;;;;;;;;18.84;100.00;98817.94;4993665;28;19934;-76
2021/07/07 12:31:29;;;;;;;;;;;;;;;18.78;100.00;98817.06;4979192;28;20012;-76
2021/07/07 12:33:56;;;;;;;;;;;;;;;18.76;100.00;98834.53;4991176;28;19956;-80
2021/07/07 12:36:28;;;;;;;;;;;;;;;18.96;100.00;98839.53;5013649;28;20009;-78
2021/07/07 12:38:57;;;;;;;;;;;;;;;18.83;100.00;98842.63;5010039;28;19926;-76
2021/07/07 12:41:32;;;;;;;;;;;;;;;18.65;100.00;98834.28;5006163;28;20490;-76
2021/07/07 12:44:09;;;;;;;;;;;;;;;18.56;100.00;98833.56;5007678;28;19933;-76
2021/07/07 12:47:05;;;;;;;;;;;;;;;18.57;100.00;98823.84;4992706;28;19932;-76
2021/07/07 12:49:40;;;;;;;;;;;;;;;18.61;100.00;98836.53;4989348;28;19925;-76
2021/07/07 12:52:22;;;;;;;;;;;;;;;18.78;100.00;98840.47;4992494;28;19931;-76
2021/07/07 12:55:08;;;;;;;;;;;;;;;19.04;100.00;98850.00;5009051;28;20377;-76
2021/07/07 12:57:47;;;;;;;;;;;;;;;19.35;100.00;98839.03;5008344;28;20400;-77
2021/07/07 13:00:16;;;;;;;;;;;;;;;19.56;100.00;98829.34;4983831;28;19980;-76
2021/07/07 13:02:54;;;;;;;;;;;;;;;19.81;100.00;98815.84;4991561;28;19936;-75